sensor_id;sensor_type;location;lat;lon;timestamp;temperature;humidity
27384;DHT22;14851;51.166;4.760;2022-12-05T00:02:09;2.80;99.90
27384;DHT22;14851;51.166;4.760;2022-12-05T00:04:36;2.80;99.90
27384;DHT22;14851;51.166;4.760;2022-12-05T00:07:02;2.90;99.90
27384;DHT22;14851;51.166;4.760;2022-12-05T00:09:29;2.90;99.90
27384;DHT22;14851;51.166;4.760;2022-12-05T00:12:02;2.90;99.90
27384;DHT22;14851;51.166;4.760;2022-12-05T00:14:29;2.90;99.90
27384;DHT22;14851;51.166;4.760;2022-12-05T00:16:56;2.90;99.90
27384;DHT22;14851;51.166;4.760;2022-12-05T00:19:25;2.90;99.90
27384;DHT22;14851;51.166;4.760;2022-12-05T00:21:51;2.90;99.90
27384;DHT22;14851;51.166;4.760;2022-12-05T00:24:18;2.90;99.90
27384;DHT22;14851;51.166;4.760;2022-12-05T00:26:48;2.90;99.90
27384;DHT22;14851;51.166;4.760;2022-12-05T00:29:15;2.90;99.90
27384;DHT22;14851;51.166;4.760;2022-12-05T00:31:41;2.90;99.90
27384;DHT22;14851;51.166;4.760;2022-12-05T00:34:08;2.90;99.90
27384;DHT22;14851;51.166;4.760;2022-12-05T00:36:36;2.90;99.90
27384;DHT22;14851;51.166;4.760;2022-12-05T00:39:10;2.90;99.90
27384;DHT22;14851;51.166;4.760;2022-12-05T00:41:37;2.90;99.90
27384;DHT22;14851;51.166;4.760;2022-12-05T00:44:04;2.90;99.90
27384;DHT22;14851;51.166;4.760;2022-12-05T00:46:31;2.90;99.90
27384;DHT22;14851;51.166;4.760;2022-12-05T00:48:59;2.90;99.90
27384;DHT22;14851;51.166;4.760;2022-12-05T00:51:35;2.90;99.90
27384;DHT22;14851;51.166;4.760;2022-12-05T00:54:05;2.90;99.90
27384;DHT22;14851;51.166;4.760;2022-12-05T00:56:34;2.90;99.90
27384;DHT22;14851;51.166;4.760;2022-12-05T00:59:01;2.90;99.90
27384;DHT22;14851;51.166;4.760;2022-12-05T01:01:33;3.00;99.90
27384;DHT22;14851;51.166;4.760;2022-12-05T01:04:05;2.90;99.90
27384;DHT22;14851;51.166;4.760;2022-12-05T01:06:35;2.90;99.90
27384;DHT22;14851;51.166;4.760;2022-12-05T01:09:03;2.90;99.90
27384;DHT22;14851;51.166;4.760;2022-12-05T01:11:29;2.90;99.90
27384;DHT22;14851;51.166;4.760;2022-12-05T01:13:56;2.90;99.90
27384;DHT22;14851;51.166;4.760;2022-12-05T01:16:24;2.90;99.90
27384;DHT22;14851;51.166;4.760;2022-12-05T01:18:52;2.90;99.90
27384;DHT22;14851;51.166;4.760;2022-12-05T01:21:19;2.90;99.90
27384;DHT22;14851;51.166;4.760;2022-12-05T01:23:46;2.90;99.90
27384;DHT22;14851;51.166;4.760;2022-12-05T01:26:14;3.00;99.90
27384;DHT22;14851;51.166;4.760;2022-12-05T01:28:45;2.90;99.90
27384;DHT22;14851;51.166;4.760;2022-12-05T01:31:26;2.90;99.90
27384;DHT22;14851;51.166;4.760;2022-12-05T01:33:57;3.00;99.90
27384;DHT22;14851;51.166;4.760;2022-12-05T01:36:25;3.00;99.90
27384;DHT22;14851;51.166;4.760;2022-12-05T01:38:55;2.90;99.90
27384;DHT22;14851;51.166;4.760;2022-12-05T01:41:27;3.00;99.90
27384;DHT22;14851;51.166;4.760;2022-12-05T01:44:06;3.00;99.90
27384;DHT22;14851;51.166;4.760;2022-12-05T01:46:39;3.00;99.90
27384;DHT22;14851;51.166;4.760;2022-12-05T01:51:42;3.00;99.90
27384;DHT22;14851;51.166;4.760;2022-12-05T01:54:10;3.00;99.90
27384;DHT22;14851;51.166;4.760;2022-12-05T01:56:39;3.00;99.90
27384;DHT22;14851;51.166;4.760;2022-12-05T01:59:08;3.00;99.90
27384;DHT22;14851;51.166;4.760;2022-12-05T02:01:36;3.00;99.90
27384;DHT22;14851;51.166;4.760;2022-12-05T02:04:02;3.00;99.90
27384;DHT22;14851;51.166;4.760;2022-12-05T02:06:29;3.00;99.90
27384;DHT22;14851;51.166;4.760;2022-12-05T02:08:58;3.00;99.90
27384;DHT22;14851;51.166;4.760;2022-12-05T02:11:26;3.00;99.90
27384;DHT22;14851;51.166;4.760;2022-12-05T02:25:16;3.00;99.90
27384;DHT22;14851;51.166;4.760;2022-12-05T02:30:23;3.00;99.90
27384;DHT22;14851;51.166;4.760;2022-12-05T02:33:02;3.00;99.90
27384;DHT22;14851;51.166;4.760;2022-12-05T02:43:20;3.00;99.90
27384;DHT22;14851;51.166;4.760;2022-12-05T02:45:51;3.00;99.90
27384;DHT22;14851;51.166;4.760;2022-12-05T02:48:19;3.00;99.90
27384;DHT22;14851;51.166;4.760;2022-12-05T02:50:48;3.00;99.90
27384;DHT22;14851;51.166;4.760;2022-12-05T02:53:16;3.00;99.90
27384;DHT22;14851;51.166;4.760;2022-12-05T02:55:43;3.00;99.90
27384;DHT22;14851;51.166;4.760;2022-12-05T02:58:22;3.00;99.90
27384;DHT22;14851;51.166;4.760;2022-12-05T03:00:57;3.00;99.90
27384;DHT22;14851;51.166;4.760;2022-12-05T03:03:26;3.00;99.90
27384;DHT22;14851;51.166;4.760;2022-12-05T03:06:31;3.00;99.90
27384;DHT22;14851;51.166;4.760;2022-12-05T03:09:15;3.00;99.90
27384;DHT22;14851;51.166;4.760;2022-12-05T03:11:49;3.00;99.90
27384;DHT22;14851;51.166;4.760;2022-12-05T03:14:24;3.00;99.90
27384;DHT22;14851;51.166;4.760;2022-12-05T03:16:53;3.00;99.90
27384;DHT22;14851;51.166;4.760;2022-12-05T03:22:04;3.00;99.90
27384;DHT22;14851;51.166;4.760;2022-12-05T03:24:38;3.00;99.90
27384;DHT22;14851;51.166;4.760;2022-12-05T03:27:09;3.00;99.90
27384;DHT22;14851;51.166;4.760;2022-12-05T03:29:55;3.10;99.90
27384;DHT22;14851;51.166;4.760;2022-12-05T03:32:37;3.10;99.90
27384;DHT22;14851;51.166;4.760;2022-12-05T03:35:25;3.10;99.90
27384;DHT22;14851;51.166;4.760;2022-12-05T03:43:29;3.00;99.90
27384;DHT22;14851;51.166;4.760;2022-12-05T03:50:59;3.00;99.90
27384;DHT22;14851;51.166;4.760;2022-12-05T03:53:39;3.00;99.90
27384;DHT22;14851;51.166;4.760;2022-12-05T03:56:13;3.00;99.90
27384;DHT22;14851;51.166;4.760;2022-12-05T03:58:55;3.10;99.90
27384;DHT22;14851;51.166;4.760;2022-12-05T04:01:26;3.00;99.90
27384;DHT22;14851;51.166;4.760;2022-12-05T04:03:59;3.10;99.90
27384;DHT22;14851;51.166;4.760;2022-12-05T04:06:37;3.10;99.90
27384;DHT22;14851;51.166;4.760;2022-12-05T04:09:09;3.00;99.90
27384;DHT22;14851;51.166;4.760;2022-12-05T04:11:42;3.10;99.90
27384;DHT22;14851;51.166;4.760;2022-12-05T04:14:14;3.00;99.90
27384;DHT22;14851;51.166;4.760;2022-12-05T04:17:01;3.10;99.90
27384;DHT22;14851;51.166;4.760;2022-12-05T04:19:49;3.10;99.90
27384;DHT22;14851;51.166;4.760;2022-12-05T04:22:39;3.10;99.90
27384;DHT22;14851;51.166;4.760;2022-12-05T04:25:10;3.10;99.90
27384;DHT22;14851;51.166;4.760;2022-12-05T04:36:00;3.10;99.90
27384;DHT22;14851;51.166;4.760;2022-12-05T04:38:53;3.10;99.90
27384;DHT22;14851;51.166;4.760;2022-12-05T04:41:24;3.10;99.90
27384;DHT22;14851;51.166;4.760;2022-12-05T04:43:53;3.10;99.90
27384;DHT22;14851;51.166;4.760;2022-12-05T04:46:21;3.10;99.90
27384;DHT22;14851;51.166;4.760;2022-12-05T04:48:54;3.10;99.90
27384;DHT22;14851;51.166;4.760;2022-12-05T04:51:24;3.10;99.90
27384;DHT22;14851;51.166;4.760;2022-12-05T04:53:57;3.10;99.90
27384;DHT22;14851;51.166;4.760;2022-12-05T04:56:30;3.10;99.90
27384;DHT22;14851;51.166;4.760;2022-12-05T04:59:00;3.20;99.90
27384;DHT22;14851;51.166;4.760;2022-12-05T05:01:30;3.20;99.90
27384;DHT22;14851;51.166;4.760;2022-12-05T05:04:08;3.20;99.90
27384;DHT22;14851;51.166;4.760;2022-12-05T05:06:38;3.20;99.90
27384;DHT22;14851;51.166;4.760;2022-12-05T05:09:05;3.20;99.90
27384;DHT22;14851;51.166;4.760;2022-12-05T05:11:34;3.20;99.90
27384;DHT22;14851;51.166;4.760;2022-12-05T05:14:01;3.30;99.90
27384;DHT22;14851;51.166;4.760;2022-12-05T05:16:37;3.20;99.90
27384;DHT22;14851;51.166;4.760;2022-12-05T05:19:06;3.30;99.90
27384;DHT22;14851;51.166;4.760;2022-12-05T05:21:38;3.30;99.90
27384;DHT22;14851;51.166;4.760;2022-12-05T05:24:09;3.30;99.90
27384;DHT22;14851;51.166;4.760;2022-12-05T05:26:37;3.30;99.90
27384;DHT22;14851;51.166;4.760;2022-12-05T05:29:04;3.20;99.90
27384;DHT22;14851;51.166;4.760;2022-12-05T05:31:35;3.20;99.90
27384;DHT22;14851;51.166;4.760;2022-12-05T05:34:01;3.20;99.90
27384;DHT22;14851;51.166;4.760;2022-12-05T05:36:28;3.20;99.90
27384;DHT22;14851;51.166;4.760;2022-12-05T05:38:58;3.20;99.90
27384;DHT22;14851;51.166;4.760;2022-12-05T05:41:31;3.20;99.90
27384;DHT22;14851;51.166;4.760;2022-12-05T05:43:58;3.30;99.90
27384;DHT22;14851;51.166;4.760;2022-12-05T05:46:28;3.30;99.90
27384;DHT22;14851;51.166;4.760;2022-12-05T05:48:54;3.30;99.90
27384;DHT22;14851;51.166;4.760;2022-12-05T05:51:21;3.40;99.90
27384;DHT22;14851;51.166;4.760;2022-12-05T05:53:48;3.40;99.90
27384;DHT22;14851;51.166;4.760;2022-12-05T05:56:16;3.40;99.90
27384;DHT22;14851;51.166;4.760;2022-12-05T05:58:43;3.40;99.90
27384;DHT22;14851;51.166;4.760;2022-12-05T06:01:17;3.40;99.90
27384;DHT22;14851;51.166;4.760;2022-12-05T06:03:45;3.40;99.90
27384;DHT22;14851;51.166;4.760;2022-12-05T06:06:13;3.30;99.90
27384;DHT22;14851;51.166;4.760;2022-12-05T06:08:41;3.30;99.90
27384;DHT22;14851;51.166;4.760;2022-12-05T06:11:09;3.40;99.90
27384;DHT22;14851;51.166;4.760;2022-12-05T06:13:37;3.30;99.90
27384;DHT22;14851;51.166;4.760;2022-12-05T06:16:05;3.30;99.90
27384;DHT22;14851;51.166;4.760;2022-12-05T06:18:31;3.30;99.90
27384;DHT22;14851;51.166;4.760;2022-12-05T06:21:00;3.30;99.90
27384;DHT22;14851;51.166;4.760;2022-12-05T06:23:26;3.30;99.90
27384;DHT22;14851;51.166;4.760;2022-12-05T06:25:55;3.20;99.90
27384;DHT22;14851;51.166;4.760;2022-12-05T06:28:23;3.10;99.90
27384;DHT22;14851;51.166;4.760;2022-12-05T06:30:52;3.00;99.90
27384;DHT22;14851;51.166;4.760;2022-12-05T06:33:21;3.00;99.90
27384;DHT22;14851;51.166;4.760;2022-12-05T06:35:47;3.10;99.90
27384;DHT22;14851;51.166;4.760;2022-12-05T06:38:16;3.00;99.90
27384;DHT22;14851;51.166;4.760;2022-12-05T06:40:44;3.10;99.90
27384;DHT22;14851;51.166;4.760;2022-12-05T06:43:11;3.20;99.90
27384;DHT22;14851;51.166;4.760;2022-12-05T06:45:37;3.30;99.90
27384;DHT22;14851;51.166;4.760;2022-12-05T06:48:07;3.30;99.90
27384;DHT22;14851;51.166;4.760;2022-12-05T06:50:34;3.40;99.90
27384;DHT22;14851;51.166;4.760;2022-12-05T06:53:00;3.40;99.90
27384;DHT22;14851;51.166;4.760;2022-12-05T06:55:28;3.40;99.90
27384;DHT22;14851;51.166;4.760;2022-12-05T06:57:57;3.40;99.90
27384;DHT22;14851;51.166;4.760;2022-12-05T07:00:25;3.50;99.90
27384;DHT22;14851;51.166;4.760;2022-12-05T07:03:12;3.40;99.90
27384;DHT22;14851;51.166;4.760;2022-12-05T07:05:38;3.40;99.90
27384;DHT22;14851;51.166;4.760;2022-12-05T07:08:06;3.40;99.90
27384;DHT22;14851;51.166;4.760;2022-12-05T07:10:32;3.50;99.90
27384;DHT22;14851;51.166;4.760;2022-12-05T07:12:58;3.40;99.90
27384;DHT22;14851;51.166;4.760;2022-12-05T07:15:24;3.40;99.90
27384;DHT22;14851;51.166;4.760;2022-12-05T07:17:50;3.40;99.90
27384;DHT22;14851;51.166;4.760;2022-12-05T07:20:19;3.40;99.90
27384;DHT22;14851;51.166;4.760;2022-12-05T07:22:44;3.40;99.90
27384;DHT22;14851;51.166;4.760;2022-12-05T07:25:11;3.30;99.90
27384;DHT22;14851;51.166;4.760;2022-12-05T07:27:39;3.30;99.90
27384;DHT22;14851;51.166;4.760;2022-12-05T07:30:05;3.30;99.90
27384;DHT22;14851;51.166;4.760;2022-12-05T07:32:33;3.20;99.90
27384;DHT22;14851;51.166;4.760;2022-12-05T07:35:03;3.20;99.90
27384;DHT22;14851;51.166;4.760;2022-12-05T07:37:31;3.20;99.90
27384;DHT22;14851;51.166;4.760;2022-12-05T07:39:57;3.20;99.90
27384;DHT22;14851;51.166;4.760;2022-12-05T07:42:28;3.20;99.90
27384;DHT22;14851;51.166;4.760;2022-12-05T07:44:54;3.30;99.90
27384;DHT22;14851;51.166;4.760;2022-12-05T07:47:20;3.30;99.90
27384;DHT22;14851;51.166;4.760;2022-12-05T07:49:46;3.40;99.90
27384;DHT22;14851;51.166;4.760;2022-12-05T07:52:12;3.40;99.90
27384;DHT22;14851;51.166;4.760;2022-12-05T07:54:38;3.40;99.90
27384;DHT22;14851;51.166;4.760;2022-12-05T07:57:04;3.50;99.90
27384;DHT22;14851;51.166;4.760;2022-12-05T07:59:30;3.50;99.90
27384;DHT22;14851;51.166;4.760;2022-12-05T08:01:56;3.50;99.90
27384;DHT22;14851;51.166;4.760;2022-12-05T08:04:22;3.50;99.90
27384;DHT22;14851;51.166;4.760;2022-12-05T08:06:50;3.50;99.90
27384;DHT22;14851;51.166;4.760;2022-12-05T08:09:15;3.50;99.90
27384;DHT22;14851;51.166;4.760;2022-12-05T08:11:42;3.50;99.90
27384;DHT22;14851;51.166;4.760;2022-12-05T08:14:11;3.50;99.90
27384;DHT22;14851;51.166;4.760;2022-12-05T08:16:37;3.50;99.90
27384;DHT22;14851;51.166;4.760;2022-12-05T08:19:06;3.50;99.90
27384;DHT22;14851;51.166;4.760;2022-12-05T08:21:33;3.50;99.90
27384;DHT22;14851;51.166;4.760;2022-12-05T08:24:03;3.50;99.90
27384;DHT22;14851;51.166;4.760;2022-12-05T08:26:33;3.50;99.90
27384;DHT22;14851;51.166;4.760;2022-12-05T08:29:08;3.40;99.90
27384;DHT22;14851;51.166;4.760;2022-12-05T08:31:44;3.40;99.90
27384;DHT22;14851;51.166;4.760;2022-12-05T08:34:13;3.30;99.90
27384;DHT22;14851;51.166;4.760;2022-12-05T08:36:41;3.30;99.90
27384;DHT22;14851;51.166;4.760;2022-12-05T08:39:09;3.30;99.90
27384;DHT22;14851;51.166;4.760;2022-12-05T08:41:36;3.30;99.90
27384;DHT22;14851;51.166;4.760;2022-12-05T08:44:04;3.30;99.90
27384;DHT22;14851;51.166;4.760;2022-12-05T08:46:33;3.40;99.90
27384;DHT22;14851;51.166;4.760;2022-12-05T08:49:02;3.40;99.90
27384;DHT22;14851;51.166;4.760;2022-12-05T08:51:30;3.40;99.90
27384;DHT22;14851;51.166;4.760;2022-12-05T08:53:57;3.60;99.90
27384;DHT22;14851;51.166;4.760;2022-12-05T08:56:23;3.60;99.90
27384;DHT22;14851;51.166;4.760;2022-12-05T08:58:50;3.60;99.90
27384;DHT22;14851;51.166;4.760;2022-12-05T09:01:17;3.60;99.90
27384;DHT22;14851;51.166;4.760;2022-12-05T09:03:44;3.70;99.90
27384;DHT22;14851;51.166;4.760;2022-12-05T09:06:15;3.70;99.90
27384;DHT22;14851;51.166;4.760;2022-12-05T09:08:42;3.70;99.90
27384;DHT22;14851;51.166;4.760;2022-12-05T09:11:22;3.70;99.90
27384;DHT22;14851;51.166;4.760;2022-12-05T09:13:50;3.70;99.90
27384;DHT22;14851;51.166;4.760;2022-12-05T09:16:22;3.70;99.90
27384;DHT22;14851;51.166;4.760;2022-12-05T09:18:52;3.70;99.90
27384;DHT22;14851;51.166;4.760;2022-12-05T09:21:22;3.70;99.90
27384;DHT22;14851;51.166;4.760;2022-12-05T09:23:49;3.70;99.90
27384;DHT22;14851;51.166;4.760;2022-12-05T09:26:20;3.80;99.90
27384;DHT22;14851;51.166;4.760;2022-12-05T09:28:47;3.80;99.90
27384;DHT22;14851;51.166;4.760;2022-12-05T09:31:17;3.70;99.90
27384;DHT22;14851;51.166;4.760;2022-12-05T09:33:47;3.60;99.90
27384;DHT22;14851;51.166;4.760;2022-12-05T09:36:20;3.50;99.90
27384;DHT22;14851;51.166;4.760;2022-12-05T09:38:46;3.50;99.90
27384;DHT22;14851;51.166;4.760;2022-12-05T09:43:47;3.30;99.90
27384;DHT22;14851;51.166;4.760;2022-12-05T09:49:06;3.30;99.90
27384;DHT22;14851;51.166;4.760;2022-12-05T09:51:34;3.30;99.90
27384;DHT22;14851;51.166;4.760;2022-12-05T09:54:04;3.40;99.90
27384;DHT22;14851;51.166;4.760;2022-12-05T09:56:32;3.50;99.90
27384;DHT22;14851;51.166;4.760;2022-12-05T09:58:58;3.60;99.90
27384;DHT22;14851;51.166;4.760;2022-12-05T10:04:38;3.70;99.90
27384;DHT22;14851;51.166;4.760;2022-12-05T10:07:30;3.70;99.90
27384;DHT22;14851;51.166;4.760;2022-12-05T10:15:42;3.80;99.90
27384;DHT22;14851;51.166;4.760;2022-12-05T10:24:41;3.80;99.90
27384;DHT22;14851;51.166;4.760;2022-12-05T10:27:18;3.80;99.90
27384;DHT22;14851;51.166;4.760;2022-12-05T10:29:52;3.90;99.90
27384;DHT22;14851;51.166;4.760;2022-12-05T10:32:31;3.90;99.90
27384;DHT22;14851;51.166;4.760;2022-12-05T10:35:51;3.90;99.90
27384;DHT22;14851;51.166;4.760;2022-12-05T10:37:58;3.90;99.90
27384;DHT22;14851;51.166;4.760;2022-12-05T10:40:30;3.80;99.90
27384;DHT22;14851;51.166;4.760;2022-12-05T10:43:00;3.80;99.90
27384;DHT22;14851;51.166;4.760;2022-12-05T10:45:29;3.80;99.90
27384;DHT22;14851;51.166;4.760;2022-12-05T10:47:56;3.80;99.90
27384;DHT22;14851;51.166;4.760;2022-12-05T10:50:33;3.70;99.90
27384;DHT22;14851;51.166;4.760;2022-12-05T10:53:04;3.70;99.90
27384;DHT22;14851;51.166;4.760;2022-12-05T10:55:36;3.70;99.90
27384;DHT22;14851;51.166;4.760;2022-12-05T10:58:19;3.70;99.90
27384;DHT22;14851;51.166;4.760;2022-12-05T11:00:52;3.80;99.90
27384;DHT22;14851;51.166;4.760;2022-12-05T11:03:26;3.80;99.90
27384;DHT22;14851;51.166;4.760;2022-12-05T11:05:56;3.90;99.90
27384;DHT22;14851;51.166;4.760;2022-12-05T11:08:25;3.90;99.90
27384;DHT22;14851;51.166;4.760;2022-12-05T11:11:28;3.90;99.90
27384;DHT22;14851;51.166;4.760;2022-12-05T11:14:23;4.00;99.90
27384;DHT22;14851;51.166;4.760;2022-12-05T11:16:58;4.00;99.90
27384;DHT22;14851;51.166;4.760;2022-12-05T11:19:30;4.00;99.90
27384;DHT22;14851;51.166;4.760;2022-12-05T11:22:00;4.10;99.90
27384;DHT22;14851;51.166;4.760;2022-12-05T11:24:30;4.10;99.90
27384;DHT22;14851;51.166;4.760;2022-12-05T11:27:17;4.10;99.90
27384;DHT22;14851;51.166;4.760;2022-12-05T11:30:19;4.10;99.90
27384;DHT22;14851;51.166;4.760;2022-12-05T11:32:46;4.10;99.90
27384;DHT22;14851;51.166;4.760;2022-12-05T11:37:53;4.20;99.90
27384;DHT22;14851;51.166;4.760;2022-12-05T11:52:51;4.10;99.90
27384;DHT22;14851;51.166;4.760;2022-12-05T11:55:44;4.10;99.90
27384;DHT22;14851;51.166;4.760;2022-12-05T12:04:17;4.00;99.90
27384;DHT22;14851;51.166;4.760;2022-12-05T12:10:28;4.00;99.90
27384;DHT22;14851;51.166;4.760;2022-12-05T12:13:27;4.10;99.90
27384;DHT22;14851;51.166;4.760;2022-12-05T12:16:25;4.10;99.90
27384;DHT22;14851;51.166;4.760;2022-12-05T12:21:57;4.30;99.90
27384;DHT22;14851;51.166;4.760;2022-12-05T12:30:05;4.30;99.90
27384;DHT22;14851;51.166;4.760;2022-12-05T12:33:08;4.30;99.90
27384;DHT22;14851;51.166;4.760;2022-12-05T12:47:20;4.40;99.90
27384;DHT22;14851;51.166;4.760;2022-12-05T12:52:43;4.30;99.90
27384;DHT22;14851;51.166;4.760;2022-12-05T12:55:39;4.30;99.90
27384;DHT22;14851;51.166;4.760;2022-12-05T13:01:01;4.30;99.90
27384;DHT22;14851;51.166;4.760;2022-12-05T13:06:13;4.40;99.90
27384;DHT22;14851;51.166;4.760;2022-12-05T13:08:58;4.40;99.90
27384;DHT22;14851;51.166;4.760;2022-12-05T13:11:28;4.40;99.90
27384;DHT22;14851;51.166;4.760;2022-12-05T13:14:00;4.40;99.90
27384;DHT22;14851;51.166;4.760;2022-12-05T13:16:34;4.40;99.90
27384;DHT22;14851;51.166;4.760;2022-12-05T13:19:05;4.40;99.90
27384;DHT22;14851;51.166;4.760;2022-12-05T13:21:32;4.40;99.90
27384;DHT22;14851;51.166;4.760;2022-12-05T13:24:00;4.50;99.90
27384;DHT22;14851;51.166;4.760;2022-12-05T13:26:32;4.50;99.90
27384;DHT22;14851;51.166;4.760;2022-12-05T13:29:02;4.50;99.90
27384;DHT22;14851;51.166;4.760;2022-12-05T13:31:43;4.40;99.90
27384;DHT22;14851;51.166;4.760;2022-12-05T13:36:58;4.50;99.90
27384;DHT22;14851;51.166;4.760;2022-12-05T13:39:53;4.50;99.90
27384;DHT22;14851;51.166;4.760;2022-12-05T13:42:39;4.50;99.90
27384;DHT22;14851;51.166;4.760;2022-12-05T13:45:14;4.50;99.90
27384;DHT22;14851;51.166;4.760;2022-12-05T13:47:54;4.50;99.90
27384;DHT22;14851;51.166;4.760;2022-12-05T13:50:35;4.50;99.90
27384;DHT22;14851;51.166;4.760;2022-12-05T13:58:45;4.50;99.90
27384;DHT22;14851;51.166;4.760;2022-12-05T14:04:02;4.50;99.90
27384;DHT22;14851;51.166;4.760;2022-12-05T14:17:23;4.50;99.90
27384;DHT22;14851;51.166;4.760;2022-12-05T14:22:43;4.50;99.90
27384;DHT22;14851;51.166;4.760;2022-12-05T14:25:57;4.50;99.90
27384;DHT22;14851;51.166;4.760;2022-12-05T14:28:52;4.50;99.90
27384;DHT22;14851;51.166;4.760;2022-12-05T14:31:45;4.50;99.90
27384;DHT22;14851;51.166;4.760;2022-12-05T14:39:43;4.50;99.90
27384;DHT22;14851;51.166;4.760;2022-12-05T14:44:51;4.50;99.90
27384;DHT22;14851;51.166;4.760;2022-12-05T14:47:29;4.50;99.90
27384;DHT22;14851;51.166;4.760;2022-12-05T14:58:50;4.50;99.90
27384;DHT22;14851;51.166;4.760;2022-12-05T15:06:26;4.60;99.90
27384;DHT22;14851;51.166;4.760;2022-12-05T15:08:56;4.60;99.90
27384;DHT22;14851;51.166;4.760;2022-12-05T15:11:24;4.60;99.90
27384;DHT22;14851;51.166;4.760;2022-12-05T15:14:04;4.60;99.90
27384;DHT22;14851;51.166;4.760;2022-12-05T15:16:38;4.60;99.90
27384;DHT22;14851;51.166;4.760;2022-12-05T15:19:14;4.60;99.90
27384;DHT22;14851;51.166;4.760;2022-12-05T15:21:55;4.60;99.90
27384;DHT22;14851;51.166;4.760;2022-12-05T15:24:23;4.60;99.90
27384;DHT22;14851;51.166;4.760;2022-12-05T15:26:54;4.60;99.90
27384;DHT22;14851;51.166;4.760;2022-12-05T15:29:25;4.60;99.90
27384;DHT22;14851;51.166;4.760;2022-12-05T15:37:25;4.60;99.90
27384;DHT22;14851;51.166;4.760;2022-12-05T15:39:54;4.60;99.90
27384;DHT22;14851;51.166;4.760;2022-12-05T15:42:42;4.60;99.90
27384;DHT22;14851;51.166;4.760;2022-12-05T15:45:28;4.60;99.90
27384;DHT22;14851;51.166;4.760;2022-12-05T15:50:43;4.60;99.90
27384;DHT22;14851;51.166;4.760;2022-12-05T15:55:51;4.60;99.90
27384;DHT22;14851;51.166;4.760;2022-12-05T15:58:33;4.70;99.90
27384;DHT22;14851;51.166;4.760;2022-12-05T16:01:05;4.70;99.90
27384;DHT22;14851;51.166;4.760;2022-12-05T16:06:31;4.70;99.90
27384;DHT22;14851;51.166;4.760;2022-12-05T16:09:03;4.70;99.90
27384;DHT22;14851;51.166;4.760;2022-12-05T16:11:31;4.70;99.90
27384;DHT22;14851;51.166;4.760;2022-12-05T16:14:00;4.70;99.90
27384;DHT22;14851;51.166;4.760;2022-12-05T16:16:33;4.70;99.90
27384;DHT22;14851;51.166;4.760;2022-12-05T16:19:17;4.70;99.90
27384;DHT22;14851;51.166;4.760;2022-12-05T16:22:05;4.70;99.90
27384;DHT22;14851;51.166;4.760;2022-12-05T16:27:24;4.70;99.90
27384;DHT22;14851;51.166;4.760;2022-12-05T16:30:28;4.70;99.90
27384;DHT22;14851;51.166;4.760;2022-12-05T16:33:02;4.70;99.90
27384;DHT22;14851;51.166;4.760;2022-12-05T16:35:41;4.70;99.90
27384;DHT22;14851;51.166;4.760;2022-12-05T16:38:16;4.80;99.90
27384;DHT22;14851;51.166;4.760;2022-12-05T16:45:54;4.70;99.90
27384;DHT22;14851;51.166;4.760;2022-12-05T16:48:30;4.80;99.90
27384;DHT22;14851;51.166;4.760;2022-12-05T16:53:40;4.80;99.90
27384;DHT22;14851;51.166;4.760;2022-12-05T16:56:13;4.80;99.90
27384;DHT22;14851;51.166;4.760;2022-12-05T16:58:41;4.80;99.90
27384;DHT22;14851;51.166;4.760;2022-12-05T17:01:15;4.80;99.90
27384;DHT22;14851;51.166;4.760;2022-12-05T17:03:43;4.70;99.90
27384;DHT22;14851;51.166;4.760;2022-12-05T17:06:11;4.70;99.90
27384;DHT22;14851;51.166;4.760;2022-12-05T17:08:38;4.70;99.90
27384;DHT22;14851;51.166;4.760;2022-12-05T17:11:11;4.70;99.90
27384;DHT22;14851;51.166;4.760;2022-12-05T17:13:39;4.80;99.90
27384;DHT22;14851;51.166;4.760;2022-12-05T17:16:06;4.80;99.90
27384;DHT22;14851;51.166;4.760;2022-12-05T17:18:33;4.80;99.90
27384;DHT22;14851;51.166;4.760;2022-12-05T17:21:01;4.80;99.90
27384;DHT22;14851;51.166;4.760;2022-12-05T17:23:27;4.80;99.90
27384;DHT22;14851;51.166;4.760;2022-12-05T17:25:56;4.80;99.90
27384;DHT22;14851;51.166;4.760;2022-12-05T17:28:24;4.80;99.90
27384;DHT22;14851;51.166;4.760;2022-12-05T17:30:51;4.80;99.90
27384;DHT22;14851;51.166;4.760;2022-12-05T17:33:18;4.80;99.90
27384;DHT22;14851;51.166;4.760;2022-12-05T17:35:45;4.80;99.90
27384;DHT22;14851;51.166;4.760;2022-12-05T17:38:14;4.80;99.90
27384;DHT22;14851;51.166;4.760;2022-12-05T17:40:41;4.80;99.90
27384;DHT22;14851;51.166;4.760;2022-12-05T17:43:12;4.80;99.90
27384;DHT22;14851;51.166;4.760;2022-12-05T17:45:42;4.90;99.90
27384;DHT22;14851;51.166;4.760;2022-12-05T17:48:14;4.80;99.90
27384;DHT22;14851;51.166;4.760;2022-12-05T17:50:42;4.90;99.90
27384;DHT22;14851;51.166;4.760;2022-12-05T17:53:19;4.90;99.90
27384;DHT22;14851;51.166;4.760;2022-12-05T17:55:47;4.90;99.90
27384;DHT22;14851;51.166;4.760;2022-12-05T17:58:16;4.90;99.90
27384;DHT22;14851;51.166;4.760;2022-12-05T18:00:44;4.90;99.90
27384;DHT22;14851;51.166;4.760;2022-12-05T18:03:12;4.90;99.90
27384;DHT22;14851;51.166;4.760;2022-12-05T18:05:39;4.90;99.90
27384;DHT22;14851;51.166;4.760;2022-12-05T18:08:05;4.90;99.90
27384;DHT22;14851;51.166;4.760;2022-12-05T18:10:33;4.90;99.90
27384;DHT22;14851;51.166;4.760;2022-12-05T18:13:01;4.90;99.90
27384;DHT22;14851;51.166;4.760;2022-12-05T18:15:27;4.90;99.90
27384;DHT22;14851;51.166;4.760;2022-12-05T18:17:55;4.90;99.90
27384;DHT22;14851;51.166;4.760;2022-12-05T18:20:25;4.90;99.90
27384;DHT22;14851;51.166;4.760;2022-12-05T18:22:52;4.90;99.90
27384;DHT22;14851;51.166;4.760;2022-12-05T18:25:21;5.00;99.90
27384;DHT22;14851;51.166;4.760;2022-12-05T18:27:48;5.00;99.90
27384;DHT22;14851;51.166;4.760;2022-12-05T18:30:13;5.00;99.90
27384;DHT22;14851;51.166;4.760;2022-12-05T18:32:40;4.90;99.90
27384;DHT22;14851;51.166;4.760;2022-12-05T18:35:07;5.00;99.90
27384;DHT22;14851;51.166;4.760;2022-12-05T18:37:35;5.00;99.90
27384;DHT22;14851;51.166;4.760;2022-12-05T18:40:03;5.00;99.90
27384;DHT22;14851;51.166;4.760;2022-12-05T18:42:30;5.00;99.90
27384;DHT22;14851;51.166;4.760;2022-12-05T18:44:56;5.00;99.90
27384;DHT22;14851;51.166;4.760;2022-12-05T18:47:23;5.00;99.90
27384;DHT22;14851;51.166;4.760;2022-12-05T18:49:50;5.10;99.90
27384;DHT22;14851;51.166;4.760;2022-12-05T18:52:16;5.10;99.90
27384;DHT22;14851;51.166;4.760;2022-12-05T18:54:42;5.10;99.90
27384;DHT22;14851;51.166;4.760;2022-12-05T18:57:10;5.00;99.90
27384;DHT22;14851;51.166;4.760;2022-12-05T18:59:38;5.10;99.90
27384;DHT22;14851;51.166;4.760;2022-12-05T19:02:05;5.10;99.90
27384;DHT22;14851;51.166;4.760;2022-12-05T19:04:32;5.10;99.90
27384;DHT22;14851;51.166;4.760;2022-12-05T19:06:59;5.10;99.90
27384;DHT22;14851;51.166;4.760;2022-12-05T19:09:29;5.10;99.90
27384;DHT22;14851;51.166;4.760;2022-12-05T19:11:57;5.20;99.90
27384;DHT22;14851;51.166;4.760;2022-12-05T19:14:26;5.20;99.90
27384;DHT22;14851;51.166;4.760;2022-12-05T19:16:53;5.20;99.90
27384;DHT22;14851;51.166;4.760;2022-12-05T19:19:20;5.20;99.90
27384;DHT22;14851;51.166;4.760;2022-12-05T19:21:49;5.20;99.90
27384;DHT22;14851;51.166;4.760;2022-12-05T19:24:17;5.20;99.90